Impacts METAR Board
IDs:

KCVG - Cincinnati Intl, KY, US

Updated at: 1300 UTC 13 Dec 2019
Potential Impact None Slight Moderate High
Time 13/01Z 13/02Z 13/03Z 13/04Z 13/05Z 13/06Z 13/07Z 13/08Z 13/09Z 13/10Z 13/11Z 13/12Z 13/13Z
Temp37 37 35 36 36 33 33 32 33 36 39 40 41
Dewpt25 25 25 25 25 25 24 25 26 29 32 32 35
Altim30.25 30.25 30.22 30.20 30.18 30.15 30.14 30.14 30.12 30.11 30.09 30.08 30.09
VIS10 10 10 10 10 10 10 10 10 10 10 10 10
CIG250 250 250 250 250 -- -- -- -- 42 40 40 38
CoverOVCOVCOVCOVCOVCSCTSCTFEWSCTOVCOVCOVCOVC
FltCatVFRVFRVFRVFRVFRVFRVFRVFRVFRVFRVFRVFRVFR
WX--------------------------
WDir130130140150170160170170170160170180170
WSpd5 5 7 5 5 8 7 7 6 5 5 4 7
WGst-- -- -- -- -- -- -- -- -- -- -- -- --
Raw hourly METARs
KCVG 130052Z 13005KT 10SM OVC250 03/M04 A3025 RMK AO2 SLP252 T00281039
KCVG 130152Z 13005KT 10SM OVC250 03/M04 A3025 RMK AO2 SLP248 T00281039
KCVG 130252Z 14007KT 10SM OVC250 02/M04 A3022 RMK AO2 SLP239 T00171039 58013
KCVG 130352Z 15005KT 10SM OVC250 02/M04 A3020 RMK AO2 SLP233 T00221039
KCVG 130452Z 17005KT 10SM OVC250 02/M04 A3018 RMK AO2 SLP223 T00221039 400611044
KCVG 130552Z 16008KT 10SM SCT250 01/M04 A3015 RMK AO2 SLP215 T00061039 10039 20006 58022
KCVG 130652Z 17007KT 10SM SCT250 01/M04 A3014 RMK AO2 SLP212 T00061044
KCVG 130752Z 17007KT 10SM FEW250 00/M04 A3014 RMK AO2 SLP209 T00001039
KCVG 130852Z 17006KT 10SM SCT050 01/M03 A3012 RMK AO2 SLP204 T00061033 58011
KCVG 130952Z 16005KT 10SM OVC042 02/M02 A3011 RMK AO2 SLP197 T00221017
KCVG 131052Z 17005KT 10SM OVC040 04/00 A3009 RMK AO2 SLP194 T00390000
KCVG 131152Z 18004KT 10SM OVC040 04/00 A3008 RMK AO2 SLP189 OCNL BINOVC T00440000 10044 21006 56014
KCVG 131252Z 17007KT 10SM BKN038 OVC040 05/02 A3009 RMK AO2 SLP191 T00500017



Page loaded:  13:50 UTC  |   05:50 AM Pacific  |   06:50 AM Mountain  |   07:50 AM Central  |   08:50 AM Eastern

 

ADVISORIES

FORECASTS

FORECASTS

OBSERVATIONS

USER TOOLS

ABOUT US